Time;durP1;ratioP1;P1;durP2;ratioP2;P2;SDS_P1;SDS_P2;PMS_P1;PMS_P2;Temp;Humidity;BMP_temperature;BMP_pressure;BME280_temperature;BME280_humidity;BME280_pressure;Samples;Min_cycle;Max_cycle;Signal;HPM_P1;HPM_P2
2023/04/26 00:02:07;;;;;;;1.97;1.23;;;6.40;99.90;7.60;96389.00;;;;5107452;28;20225;-70
2023/04/26 00:04:57;;;;;;;0.80;0.80;;;6.30;99.90;7.40;96395.00;;;;5102609;28;20199;-69
2023/04/26 00:07:46;;;;;;;0.97;0.97;;;6.10;99.90;7.50;96398.00;;;;5106845;28;20214;-70
2023/04/26 00:10:34;;;;;;;1.40;1.30;;;6.00;99.90;6.60;96387.00;;;;5106736;28;20262;-72
2023/04/26 00:13:23;;;;;;;4.13;1.23;;;5.80;99.90;6.50;96388.00;;;;5105846;28;20254;-72
2023/04/26 00:16:14;;;;;;;1.50;1.00;;;5.60;99.90;7.00;96398.00;;;;5106746;28;20201;-68
2023/04/26 00:19:04;;;;;;;1.20;1.07;;;5.60;99.90;7.30;96401.00;;;;5102127;28;20220;-69
2023/04/26 00:21:52;;;;;;;1.43;1.33;;;5.50;99.90;7.30;96405.00;;;;5096773;28;20235;-69
2023/04/26 00:24:42;;;;;;;1.37;1.20;;;5.50;99.90;7.10;96383.00;;;;5102142;28;20191;-70
2023/04/26 00:27:30;;;;;;;1.27;1.17;;;5.50;99.90;7.00;96388.00;;;;5107914;28;20207;-73
2023/04/26 00:30:19;;;;;;;5.13;1.57;;;5.40;99.90;6.90;96384.00;;;;5108146;28;20191;-67
2023/04/26 00:33:08;;;;;;;0.93;0.90;;;5.40;99.90;7.30;96395.00;;;;5106054;28;20316;-68
2023/04/26 00:35:58;;;;;;;1.30;1.10;;;5.50;99.90;7.20;96378.00;;;;5105658;28;20199;-69
2023/04/26 00:38:47;;;;;;;1.27;1.17;;;5.50;99.90;7.00;96379.00;;;;5112042;28;20725;-69
2023/04/26 00:41:36;;;;;;;2.03;1.23;;;5.50;99.90;7.00;96384.00;;;;5109844;28;20195;-69
2023/04/26 00:44:25;;;;;;;1.47;1.37;;;5.50;99.90;6.60;96375.00;;;;5108583;28;20625;-67
2023/04/26 00:47:14;;;;;;;1.23;0.97;;;5.40;99.90;6.70;96383.00;;;;5104863;28;20266;-69
2023/04/26 00:50:03;;;;;;;2.87;1.07;;;5.30;99.90;5.80;96383.00;;;;5106421;28;20226;-72
2023/04/26 00:52:53;;;;;;;1.20;1.10;;;5.10;99.90;5.60;96375.00;;;;5104861;28;20226;-66
2023/04/26 00:55:43;;;;;;;0.87;0.87;;;4.80;99.90;6.10;96385.00;;;;5100562;28;20195;-73
2023/04/26 00:58:32;;;;;;;1.67;1.20;;;4.80;99.90;6.60;96380.00;;;;5097706;28;20229;-73
2023/04/26 01:01:21;;;;;;;1.33;1.17;;;4.70;99.90;6.40;96388.00;;;;5104676;28;20209;-72
2023/04/26 01:04:11;;;;;;;2.07;1.33;;;4.70;99.90;6.00;96382.00;;;;5103103;28;20203;-70
2023/04/26 01:07:02;;;;;;;2.57;1.60;;;4.70;99.90;5.70;96383.00;;;;5107151;28;20669;-66
2023/04/26 01:09:53;;;;;;;1.50;1.40;;;4.60;99.90;5.70;96385.00;;;;5110400;28;20199;-67
2023/04/26 01:12:42;;;;;;;1.60;1.17;;;4.50;99.90;6.00;96391.00;;;;5110943;28;20223;-70
2023/04/26 01:15:32;;;;;;;2.87;1.10;;;4.50;99.90;5.70;96389.00;;;;5109188;28;20206;-65
2023/04/26 01:18:21;;;;;;;0.93;0.87;;;4.60;99.90;6.40;96398.00;;;;5109183;28;20203;-70
2023/04/26 01:21:10;;;;;;;0.93;0.87;;;4.60;99.90;6.40;96396.00;;;;5109385;28;20219;-67
2023/04/26 01:24:00;;;;;;;0.80;0.80;;;4.70;99.90;6.30;96401.00;;;;5104739;28;20501;-65
2023/04/26 01:26:49;;;;;;;0.70;0.70;;;4.80;99.90;6.50;96392.00;;;;5103512;28;20320;-69
2023/04/26 01:29:38;;;;;;;1.60;0.80;;;4.90;99.90;6.80;96399.00;;;;5102323;28;20417;-69
2023/04/26 01:32:26;;;;;;;1.20;1.13;;;5.00;99.90;6.70;96397.00;;;;5107241;28;20229;-72
2023/04/26 01:35:15;;;;;;;2.13;1.20;;;5.00;99.90;6.70;96408.00;;;;5105664;28;20267;-72
2023/04/26 01:38:04;;;;;;;0.83;0.83;;;5.10;99.90;6.50;96405.00;;;;5098018;28;20244;-72
2023/04/26 01:40:54;;;;;;;1.20;1.10;;;5.00;99.90;6.40;96404.00;;;;5100608;28;20206;-72
2023/04/26 01:43:43;;;;;;;0.83;0.63;;;4.90;99.90;6.60;96404.00;;;;5096317;28;20289;-73
2023/04/26 01:46:31;;;;;;;0.83;0.80;;;4.90;99.90;6.70;96410.00;;;;5100177;28;20207;-71
2023/04/26 01:49:20;;;;;;;1.30;0.80;;;4.90;99.90;6.70;96406.00;;;;5109755;28;20187;-68
2023/04/26 01:52:09;;;;;;;1.07;0.90;;;4.90;99.90;6.60;96411.00;;;;5107786;28;20227;-68
2023/04/26 01:54:57;;;;;;;0.73;0.73;;;4.90;99.90;6.40;96411.00;;;;5103118;28;20218;-68
2023/04/26 01:57:47;;;;;;;1.07;0.73;;;4.90;99.90;6.50;96411.00;;;;5108043;28;20195;-68
2023/04/26 02:00:37;;;;;;;2.10;1.20;;;4.80;99.90;6.30;96423.00;;;;5095414;28;20199;-68
2023/04/26 02:03:26;;;;;;;1.00;0.93;;;4.80;99.90;6.50;96413.00;;;;5102809;28;20226;-68
2023/04/26 02:06:14;;;;;;;7.60;1.23;;;4.80;99.90;6.20;96421.00;;;;5109192;28;20625;-69
2023/04/26 02:09:03;;;;;;;1.23;1.20;;;4.80;99.90;6.30;96431.00;;;;5096856;28;20428;-69
2023/04/26 02:11:52;;;;;;;1.10;1.00;;;4.80;99.90;6.30;96433.00;;;;5106753;28;20842;-69
2023/04/26 02:14:42;;;;;;;1.23;1.13;;;4.80;99.90;6.40;96431.00;;;;5104033;28;20218;-69
2023/04/26 02:17:31;;;;;;;1.20;1.10;;;4.80;99.90;6.40;96436.00;;;;5098722;28;20612;-69
2023/04/26 02:20:20;;;;;;;0.93;0.90;;;4.90;99.90;6.00;96441.00;;;;5102128;28;20203;-69
2023/04/26 02:23:08;;;;;;;0.70;0.70;;;4.90;99.90;6.20;96435.00;;;;5108618;28;20253;-69
2023/04/26 02:25:57;;;;;;;1.00;1.00;;;4.90;99.90;6.10;96432.00;;;;5103293;28;20425;-69
2023/04/26 02:28:46;;;;;;;0.70;0.70;;;4.90;99.90;5.90;96424.00;;;;5108063;28;20190;-69
2023/04/26 02:31:36;;;;;;;0.80;0.80;;;4.80;99.90;6.10;96429.00;;;;5108603;28;20514;-70
2023/04/26 02:34:25;;;;;;;1.03;0.90;;;4.80;99.90;6.00;96426.00;;;;5107927;28;20218;-71
2023/04/26 02:37:13;;;;;;;1.33;1.23;;;4.80;99.90;5.90;96423.00;;;;5108419;28;20260;-72
2023/04/26 02:40:04;;;;;;;1.33;0.90;;;4.80;99.90;5.90;96428.00;;;;5103398;28;20236;-72
2023/04/26 02:42:52;;;;;;;2.50;0.90;;;4.70;99.90;5.70;96413.00;;;;5103872;28;20226;-70
2023/04/26 02:45:42;;;;;;;1.30;1.20;;;4.60;99.90;5.80;96421.00;;;;5102919;28;20205;-70
2023/04/26 02:48:32;;;;;;;1.77;1.20;;;4.70;99.90;5.40;96418.00;;;;5100108;28;20479;-70
2023/04/26 02:51:21;;;;;;;1.13;1.07;;;4.60;99.90;5.20;96423.00;;;;5105939;27;20425;-69
2023/04/26 02:54:10;;;;;;;1.73;1.63;;;4.50;99.90;5.50;96418.00;;;;5100475;28;20231;-72
2023/04/26 02:56:59;;;;;;;1.27;1.10;;;4.30;99.90;6.00;96419.00;;;;5102607;28;20254;-72
2023/04/26 02:59:48;;;;;;;1.40;1.30;;;4.30;99.90;5.70;96412.00;;;;5095824;28;21272;-72
2023/04/26 03:02:37;;;;;;;2.03;1.27;;;4.30;99.90;5.60;96423.00;;;;5095337;28;20487;-73
2023/04/26 03:05:27;;;;;;;1.70;1.40;;;4.30;99.90;5.70;96426.00;;;;5107462;28;20428;-73
2023/04/26 03:08:16;;;;;;;2.37;1.57;;;4.30;99.90;5.80;96416.00;;;;5106925;28;20421;-73
2023/04/26 03:11:05;;;;;;;1.00;1.00;;;4.40;99.90;5.50;96426.00;;;;5108452;28;20462;-73
2023/04/26 03:13:54;;;;;;;1.20;1.10;;;4.40;99.90;5.50;96425.00;;;;5101558;28;20275;-73
2023/04/26 03:16:44;;;;;;;4.53;1.47;;;4.30;99.90;5.50;96424.00;;;;5107322;28;20244;-73
2023/04/26 03:19:33;;;;;;;1.40;1.20;;;4.30;99.90;5.50;96424.00;;;;5097617;28;20234;-73
2023/04/26 03:22:23;;;;;;;1.43;1.33;;;4.30;99.90;5.50;96429.00;;;;5107665;28;20436;-72
2023/04/26 03:25:12;;;;;;;1.43;1.27;;;4.20;99.90;5.50;96428.00;;;;5103573;28;20546;-73
2023/04/26 03:28:00;;;;;;;1.03;0.93;;;4.20;99.90;5.50;96434.00;;;;5093218;28;20195;-75
2023/04/26 03:30:49;;;;;;;5.17;1.30;;;4.20;99.90;5.50;96435.00;;;;5106483;28;20707;-72
2023/04/26 03:33:38;;;;;;;1.40;1.30;;;4.20;99.90;5.30;96429.00;;;;5090623;28;20442;-73
2023/04/26 03:36:27;;;;;;;0.60;0.60;;;4.20;99.90;5.20;96432.00;;;;5094864;28;20433;-73
2023/04/26 03:39:17;;;;;;;2.37;1.17;;;4.10;99.90;5.10;96444.00;;;;5106890;28;21055;-73
2023/04/26 03:42:06;;;;;;;1.00;0.90;;;4.00;99.90;5.20;96440.00;;;;5108712;28;21179;-73
2023/04/26 03:44:55;;;;;;;1.97;0.80;;;4.00;99.90;5.30;96451.00;;;;5099461;28;20291;-72
2023/04/26 03:47:43;;;;;;;3.23;1.10;;;4.00;99.90;5.30;96451.00;;;;5107197;28;20493;-73
2023/04/26 03:50:32;;;;;;;1.00;0.90;;;4.00;99.90;5.30;96471.00;;;;5102559;28;20248;-73
2023/04/26 03:53:21;;;;;;;2.00;1.40;;;4.00;99.90;5.30;96464.00;;;;5109617;28;20291;-75
2023/04/26 03:56:11;;;;;;;1.20;1.10;;;4.00;99.90;5.30;96468.00;;;;5103212;28;20948;-73
2023/04/26 03:59:00;;;;;;;1.53;1.20;;;4.00;99.90;5.40;96466.00;;;;5101387;28;20260;-73
2023/04/26 04:01:48;;;;;;;5.07;1.23;;;4.00;99.90;5.50;96478.00;;;;5102113;28;20440;-73
2023/04/26 04:04:37;;;;;;;0.90;0.90;;;4.00;99.90;5.50;96477.00;;;;5101690;28;20924;-73
2023/04/26 04:07:26;;;;;;;1.17;1.07;;;4.10;99.90;5.40;96479.00;;;;5109304;28;20421;-73
2023/04/26 04:10:15;;;;;;;1.07;0.97;;;4.10;99.90;5.50;96484.00;;;;5111014;28;20201;-73
2023/04/26 04:13:05;;;;;;;1.10;1.10;;;4.20;99.90;5.60;96489.00;;;;5115283;27;20291;-73
2023/04/26 04:15:54;;;;;;;1.10;1.10;;;4.20;99.90;5.50;96493.00;;;;5102343;27;20246;-73
2023/04/26 04:18:43;;;;;;;4.83;1.27;;;4.20;99.90;5.50;96487.00;;;;5102036;28;20252;-72
2023/04/26 04:21:32;;;;;;;1.40;1.00;;;4.30;99.90;5.60;96492.00;;;;5108146;28;20688;-72
2023/04/26 04:24:21;;;;;;;1.20;1.10;;;4.30;99.90;5.60;96497.00;;;;5108188;28;20884;-72
2023/04/26 04:27:10;;;;;;;2.67;1.10;;;4.30;99.90;5.70;96494.00;;;;5105997;28;20587;-70
2023/04/26 04:30:02;;;;;;;0.97;0.90;;;4.40;99.90;5.30;96487.00;;;;5105018;28;20222;-72
2023/04/26 04:32:51;;;;;;;3.93;1.47;;;4.30;99.90;5.80;96501.00;;;;5098358;28;20218;-72
2023/04/26 04:35:42;;;;;;;1.27;1.17;;;4.40;99.90;6.00;96503.00;;;;5108428;28;20718;-72
2023/04/26 04:38:30;;;;;;;1.53;1.43;;;4.50;99.90;5.80;96517.00;;;;5108991;28;20206;-72
2023/04/26 04:41:21;;;;;;;1.13;1.03;;;4.50;99.90;5.50;96507.00;;;;5109043;28;20226;-72
2023/04/26 04:44:09;;;;;;;1.53;1.43;;;4.50;99.90;5.50;96498.00;;;;5097565;28;20203;-72
2023/04/26 04:46:59;;;;;;;1.60;1.50;;;4.50;99.90;5.50;96510.00;;;;5101546;28;20228;-71
2023/04/26 04:49:48;;;;;;;2.53;0.90;;;4.40;99.90;5.30;96513.00;;;;5102160;28;20193;-72
2023/04/26 04:52:37;;;;;;;1.53;1.37;;;4.40;99.90;5.20;96515.00;;;;5103684;28;20227;-68
2023/04/26 04:55:26;;;;;;;1.13;1.03;;;4.30;99.90;5.80;96525.00;;;;5106783;27;20227;-69
2023/04/26 04:58:15;;;;;;;1.50;1.37;;;4.40;99.90;6.20;96533.00;;;;5111669;27;20976;-69
2023/04/26 05:01:03;;;;;;;1.30;1.07;;;4.50;99.90;6.30;96540.00;;;;5106646;28;20206;-69
2023/04/26 05:03:53;;;;;;;0.87;0.80;;;4.60;99.90;6.00;96534.00;;;;5102888;28;20292;-69
2023/04/26 05:06:42;;;;;;;1.53;1.23;;;4.70;99.90;5.80;96538.00;;;;5101446;28;20646;-69
2023/04/26 05:09:31;;;;;;;1.47;1.37;;;4.70;99.90;5.70;96533.00;;;;5103856;27;20207;-69
2023/04/26 05:12:20;;;;;;;2.10;1.60;;;4.70;99.90;5.70;96538.00;;;;5096705;28;20637;-73
2023/04/26 05:15:10;;;;;;;2.90;1.60;;;4.60;99.90;5.60;96533.00;;;;5104227;28;20229;-74
2023/04/26 05:17:59;;;;;;;1.83;1.43;;;4.70;99.90;5.90;96544.00;;;;5097536;28;20275;-68
2023/04/26 05:20:49;;;;;;;1.43;1.20;;;4.70;99.90;6.40;96549.00;;;;5097395;28;20198;-69
2023/04/26 05:23:38;;;;;;;1.70;1.60;;;4.90;99.90;7.00;96554.00;;;;5106958;28;20295;-68
2023/04/26 05:26:26;;;;;;;1.07;1.03;;;5.10;99.90;6.90;96552.00;;;;5101706;28;20219;-69
2023/04/26 05:29:15;;;;;;;3.27;0.93;;;5.30;99.90;6.80;96557.00;;;;5108731;27;20191;-70
2023/04/26 05:32:04;;;;;;;1.13;1.07;;;5.40;99.90;7.10;96571.00;;;;5104362;28;20700;-70
2023/04/26 05:34:53;;;;;;;0.93;0.90;;;5.40;99.90;6.80;96574.00;;;;5108769;28;20206;-70
2023/04/26 05:37:43;;;;;;;1.30;1.20;;;5.50;99.90;6.70;96565.00;;;;5101753;28;20326;-70
2023/04/26 05:40:32;;;;;;;1.00;0.97;;;5.50;99.90;6.50;96563.00;;;;5107070;27;20203;-73
2023/04/26 05:43:21;;;;;;;2.70;1.27;;;5.40;99.90;7.40;96574.00;;;;5111916;27;20240;-73
2023/04/26 05:46:09;;;;;;;1.20;0.90;;;5.60;99.90;7.80;96574.00;;;;5112148;27;20202;-73
2023/04/26 05:48:58;;;;;;;4.47;1.27;;;5.80;99.90;8.00;96567.00;;;;5111944;27;20193;-73
2023/04/26 05:51:47;;;;;;;1.30;1.17;;;6.00;99.90;8.30;96566.00;;;;5111787;27;20261;-73
2023/04/26 05:54:37;;;;;;;1.53;1.33;;;6.20;99.90;8.60;96576.00;;;;5113815;27;20555;-73
2023/04/26 05:57:26;;;;;;;2.83;2.63;;;6.40;99.90;8.80;96571.00;;;;5112991;27;20203;-73
2023/04/26 06:00:18;;;;;;;7.07;1.83;;;6.70;99.90;9.00;96569.00;;;;5108917;27;20693;-73
2023/04/26 06:03:07;;;;;;;1.57;1.47;;;6.90;99.90;9.20;96573.00;;;;5103879;28;20215;-73
2023/04/26 06:05:55;;;;;;;4.00;1.60;;;7.10;99.90;9.60;96567.00;;;;5094024;28;20199;-73
2023/04/26 06:08:44;;;;;;;1.53;1.43;;;7.30;99.90;9.80;96574.00;;;;5106778;28;20191;-73
2023/04/26 06:11:34;;;;;;;2.10;1.90;;;7.60;99.90;10.00;96573.00;;;;5096080;28;20290;-73
2023/04/26 06:14:23;;;;;;;3.63;2.13;;;7.80;99.90;10.20;96567.00;;;;5089991;28;20211;-74
2023/04/26 06:17:16;;;;;;;3.97;1.67;;;8.00;99.90;10.60;96567.00;;;;5100734;28;20431;-73
2023/04/26 06:20:08;;;;;;;2.90;2.00;;;8.20;99.90;11.10;96577.00;;;;5104520;27;20591;-74
2023/04/26 06:22:57;;;;;;;5.07;2.27;;;8.60;99.90;11.50;96573.00;;;;5098871;27;20245;-74
2023/04/26 06:25:46;;;;;;;2.53;1.57;;;8.90;99.90;11.60;96569.00;;;;5101649;28;20203;-74
2023/04/26 06:28:36;;;;;;;4.53;2.13;;;9.20;99.90;12.00;96578.00;;;;5102505;28;20276;-73
2023/04/26 06:31:24;;;;;;;2.20;1.93;;;9.50;99.90;11.90;96597.00;;;;5090776;28;20194;-74
2023/04/26 06:34:13;;;;;;;3.50;2.03;;;9.70;99.90;11.90;96591.00;;;;5099650;28;20206;-74
2023/04/26 06:37:02;;;;;;;2.90;1.70;;;9.80;99.90;12.00;96601.00;;;;5101658;28;20219;-74
2023/04/26 06:39:50;;;;;;;2.37;2.13;;;9.90;99.90;12.10;96600.00;;;;5103127;28;20665;-74
2023/04/26 06:42:39;;;;;;;5.53;2.07;;;10.00;99.90;12.20;96603.00;;;;5092464;28;20678;-74
2023/04/26 06:45:31;;;;;;;7.83;1.70;;;10.10;99.90;12.20;96590.00;;;;5102475;28;20200;-74
2023/04/26 06:48:19;;;;;;;3.67;2.17;;;10.20;99.90;12.60;96593.00;;;;5104679;28;20195;-74
2023/04/26 06:51:08;;;;;;;4.23;2.87;;;10.30;99.90;12.50;96588.00;;;;5098966;28;20297;-74
2023/04/26 06:53:57;;;;;;;2.80;2.10;;;10.40;99.90;12.70;96595.00;;;;5102019;28;20191;-74
2023/04/26 06:56:46;;;;;;;1.53;1.40;;;10.50;99.90;12.80;96583.00;;;;5092804;28;20226;-74
2023/04/26 06:59:35;;;;;;;3.03;2.00;;;10.70;99.90;12.90;96609.00;;;;5088844;28;20211;-74
2023/04/26 07:02:26;;;;;;;2.87;1.60;;;10.80;99.90;12.40;96605.00;;;;5101975;28;20222;-74
2023/04/26 07:05:15;;;;;;;3.77;1.80;;;10.80;99.90;12.40;96600.00;;;;5090865;28;20205;-74
2023/04/26 07:08:04;;;;;;;2.27;1.30;;;10.80;99.90;12.70;96594.00;;;;5103721;28;20202;-74
2023/04/26 07:10:54;;;;;;;1.63;1.13;;;10.80;99.90;12.70;96601.00;;;;5102685;28;20202;-73
2023/04/26 07:13:43;;;;;;;1.53;1.20;;;10.80;99.90;12.20;96595.00;;;;5107903;28;20225;-74
2023/04/26 07:16:31;;;;;;;1.40;1.30;;;10.70;99.90;12.20;96593.00;;;;5107091;28;20222;-73
2023/04/26 07:19:22;;;;;;;2.20;1.20;;;10.60;99.90;12.30;96599.00;;;;5103569;28;20198;-73
2023/04/26 07:22:11;;;;;;;0.97;0.90;;;10.60;99.90;12.80;96600.00;;;;5103586;28;20225;-74
2023/04/26 07:24:59;;;;;;;0.80;0.70;;;10.70;99.90;13.10;96593.00;;;;5103132;28;20194;-74
2023/04/26 07:27:50;;;;;;;0.93;0.93;;;10.90;99.90;12.90;96605.00;;;;5101528;28;20195;-73
2023/04/26 07:30:39;;;;;;;1.73;0.90;;;11.00;99.90;12.80;96605.00;;;;5099317;28;20210;-71
2023/04/26 07:33:27;;;;;;;0.80;0.80;;;11.00;99.90;13.00;96611.00;;;;5106526;28;20219;-72
2023/04/26 07:36:18;;;;;;;0.97;0.97;;;11.10;99.90;13.70;96593.00;;;;5102839;28;20221;-71
2023/04/26 07:39:09;;;;;;;0.70;0.50;;;11.30;99.90;13.90;96617.00;;;;5107574;28;20198;-73
2023/04/26 07:41:58;;;;;;;2.33;0.87;;;11.50;99.90;13.20;96621.00;;;;5102393;28;20218;-72
2023/04/26 07:44:48;;;;;;;1.90;0.90;;;11.50;98.70;12.50;96617.00;;;;5104037;28;20700;-73
2023/04/26 07:47:37;;;;;;;1.50;1.40;;;11.40;98.00;13.30;96626.00;;;;5098087;28;20199;-73
2023/04/26 07:50:25;;;;;;;1.20;1.10;;;11.40;98.60;13.60;96638.00;;;;5102560;28;20695;-74
2023/04/26 07:53:15;;;;;;;3.03;0.90;;;11.50;99.00;13.40;96635.00;;;;5102298;28;20255;-73
2023/04/26 07:56:06;;;;;;;0.50;0.50;;;11.50;98.20;13.30;96634.00;;;;5103052;28;20187;-73
2023/04/26 07:58:55;;;;;;;0.60;0.60;;;11.50;97.30;13.10;96635.00;;;;5103026;28;20588;-72
2023/04/26 08:01:44;;;;;;;0.47;0.47;;;11.50;95.80;12.60;96630.00;;;;5103148;28;20214;-71
2023/04/26 08:04:34;;;;;;;1.03;0.50;;;11.40;94.10;12.50;96626.00;;;;5087673;28;20224;-71
2023/04/26 08:07:22;;;;;;;2.30;0.70;;;11.20;94.30;13.00;96622.00;;;;5101958;28;20708;-72
2023/04/26 08:10:13;;;;;;;1.23;0.93;;;11.20;94.00;13.50;96627.00;;;;5106493;28;20206;-71
2023/04/26 08:13:02;;;;;;;1.10;0.40;;;11.30;94.00;13.40;96634.00;;;;5105100;28;20724;-71
2023/04/26 08:15:50;;;;;;;0.30;0.30;;;11.30;93.60;12.80;96633.00;;;;5106117;28;20281;-71
2023/04/26 08:18:39;;;;;;;0.53;0.53;;;11.30;91.80;13.00;96641.00;;;;5099773;28;20210;-68
2023/04/26 08:21:28;;;;;;;0.60;0.60;;;11.40;92.20;12.70;96637.00;;;;5093859;28;20261;-63
2023/04/26 08:24:16;;;;;;;0.30;0.30;;;11.40;92.40;12.70;96636.00;;;;5093363;28;20617;-68
2023/04/26 08:27:07;;;;;;;0.60;0.60;;;11.20;92.40;12.50;96623.00;;;;5107828;28;20203;-71
2023/04/26 08:29:55;;;;;;;0.70;0.40;;;11.20;91.90;11.60;96625.00;;;;5102374;28;20247;-63
2023/04/26 08:32:44;;;;;;;0.73;0.50;;;11.00;91.60;13.40;96644.00;;;;5104249;28;20221;-68
2023/04/26 08:35:33;;;;;;;0.70;0.70;;;11.20;93.20;13.90;96637.00;;;;5101716;28;20199;-68
2023/04/26 08:38:23;;;;;;;1.00;0.87;;;11.50;93.10;14.10;96655.00;;;;5104235;28;20222;-68
2023/04/26 08:41:14;;;;;;;0.30;0.30;;;11.80;92.50;12.00;96643.00;;;;5102082;28;20198;-75
2023/04/26 08:44:07;;;;;;;0.73;0.50;;;11.70;91.00;13.20;96642.00;;;;5102706;28;20199;-71
2023/04/26 08:47:03;;;;;;;1.07;0.77;;;11.70;92.60;14.10;96658.00;;;;5092086;28;20241;-71
2023/04/26 08:49:58;;;;;;;0.70;0.70;;;11.90;91.60;14.40;96653.00;;;;5094210;28;20270;-73
2023/04/26 08:52:50;;;;;;;0.97;0.67;;;12.20;92.10;14.90;96662.00;;;;5108140;27;20215;-70
2023/04/26 08:55:39;;;;;;;1.33;0.30;;;12.50;92.00;15.40;96658.00;;;;5101537;27;20202;-71
2023/04/26 08:58:28;;;;;;;0.73;0.67;;;12.70;92.00;14.70;96662.00;;;;5101596;28;20222;-72
2023/04/26 09:01:20;;;;;;;1.10;0.70;;;13.00;90.40;14.40;96657.00;;;;5108583;28;20625;-69
2023/04/26 09:04:10;;;;;;;0.50;0.50;;;13.10;90.10;14.80;96662.00;;;;5103478;28;20203;-75
2023/04/26 09:07:02;;;;;;;0.70;0.50;;;13.20;89.50;14.00;96672.00;;;;5117912;27;20209;-73
2023/04/26 09:09:51;;;;;;;0.77;0.77;;;13.10;86.00;14.20;96636.00;;;;5097933;28;20206;-70
2023/04/26 09:12:40;;;;;;;1.53;0.87;;;13.00;88.20;14.90;96675.00;;;;5109824;28;20218;-68
2023/04/26 09:15:29;;;;;;;0.97;0.60;;;13.10;88.20;14.50;96642.00;;;;5101939;28;20200;-67
2023/04/26 09:18:20;;;;;;;0.70;0.60;;;13.10;86.20;15.40;96643.00;;;;5102703;28;20724;-72
2023/04/26 09:21:09;;;;;;;1.33;0.60;;;13.40;86.70;16.40;96647.00;;;;5104046;28;20209;-71
2023/04/26 09:23:59;;;;;;;0.50;0.50;;;13.80;89.40;16.00;96656.00;;;;5105360;28;20198;-71
2023/04/26 09:27:01;;;;;;;1.47;0.57;;;14.00;88.50;16.20;96663.00;;;;5114834;27;20205;-69
2023/04/26 09:30:05;;;;;;;2.77;0.80;;;14.10;86.50;15.70;96670.00;;;;5103408;28;20206;-71
2023/04/26 09:32:56;;;;;;;1.03;0.77;;;14.10;83.30;16.70;96645.00;;;;5101100;28;20723;-68
2023/04/26 09:35:46;;;;;;;0.93;0.63;;;14.30;83.40;16.90;96646.00;;;;5109803;28;20198;-69
2023/04/26 09:38:43;;;;;;;1.37;0.60;;;14.50;85.10;15.70;96648.00;;;;5108624;28;20636;-67
2023/04/26 09:41:44;;;;;;;0.70;0.70;;;14.40;82.20;15.90;96659.00;;;;5101821;28;20203;-72
2023/04/26 09:44:33;;;;;;;1.40;0.70;;;14.20;83.30;15.20;96631.00;;;;5107620;27;20244;-68
2023/04/26 09:47:22;;;;;;;0.57;0.50;;;14.10;81.10;16.10;96635.00;;;;5112234;27;20198;-75
2023/04/26 09:50:11;;;;;;;0.70;0.70;;;14.20;84.60;15.80;96645.00;;;;5118953;27;20198;-74
2023/04/26 09:53:01;;;;;;;0.60;0.60;;;14.10;82.30;15.40;96653.00;;;;5104369;27;20225;-73
2023/04/26 09:55:50;;;;;;;1.30;0.70;;;14.00;81.30;16.30;96647.00;;;;5121523;27;20187;-72
2023/04/26 09:58:56;;;;;;;0.50;0.50;;;14.20;83.00;16.10;96645.00;;;;5098714;28;20648;-67
2023/04/26 10:01:45;;;;;;;0.57;0.57;;;14.00;79.80;15.80;96614.00;;;;5086581;28;20210;-72
2023/04/26 10:04:34;;;;;;;0.40;0.40;;;14.30;79.30;17.30;96615.00;;;;5094078;28;20661;-69
2023/04/26 10:07:25;;;;;;;1.03;0.50;;;14.60;81.90;17.70;96615.00;;;;5102459;28;20613;-67
2023/04/26 10:10:15;;;;;;;1.10;0.63;;;15.00;80.80;17.60;96641.00;;;;5099678;28;20203;-69
2023/04/26 10:13:06;;;;;;;0.60;0.60;;;15.50;77.80;16.90;96636.00;;;;5104928;28;20218;-69
2023/04/26 10:15:56;;;;;;;2.43;0.97;;;15.40;77.50;16.80;96649.00;;;;5104134;28;20558;-71
2023/04/26 10:18:45;;;;;;;0.73;0.50;;;15.20;77.30;15.60;96635.00;;;;5102220;28;20222;-71
2023/04/26 10:21:38;;;;;;;1.17;0.70;;;15.00;71.90;15.90;96630.00;;;;5108710;28;20203;-71
2023/04/26 10:24:26;;;;;;;0.70;0.70;;;14.60;76.20;17.30;96636.00;;;;5108823;28;20217;-69
2023/04/26 10:27:16;;;;;;;1.43;0.77;;;14.70;77.20;17.50;96602.00;;;;5107860;28;20276;-72
2023/04/26 10:30:12;;;;;;;0.63;0.60;;;15.00;75.90;17.80;96585.00;;;;5104816;28;20615;-73
2023/04/26 10:33:22;;;;;;;1.03;0.50;;;15.40;77.40;19.00;96606.00;;;;5107964;28;20223;-69
2023/04/26 10:36:13;;;;;;;0.70;0.70;;;15.90;77.60;19.30;96589.00;;;;5108777;28;20296;-68
2023/04/26 10:39:22;;;;;;;0.83;0.60;;;16.40;75.30;18.30;96628.00;;;;5095237;28;20215;-70
2023/04/26 10:42:24;;;;;;;0.43;0.43;;;16.50;71.90;16.40;96611.00;;;;5104754;28;20299;-73
2023/04/26 10:45:34;;;;;;;0.70;0.60;;;16.00;68.40;18.60;96585.00;;;;5109082;28;20195;-70
2023/04/26 10:48:29;;;;;;;0.43;0.43;;;16.20;72.50;17.50;96621.00;;;;5104947;28;20202;-70
2023/04/26 10:51:18;;;;;;;1.50;0.70;;;16.10;68.00;16.60;96606.00;;;;5106337;28;20281;-72
2023/04/26 10:54:07;;;;;;;0.57;0.57;;;15.70;68.50;17.20;96607.00;;;;5100790;28;20230;-71
2023/04/26 10:56:56;;;;;;;1.50;0.80;;;15.60;69.00;17.30;96620.00;;;;5103191;28;20203;-71
2023/04/26 11:00:35;;;;;;;1.50;0.60;;;15.50;69.40;16.40;96610.00;;;;5105931;28;20757;-72
2023/04/26 11:03:24;;;;;;;0.73;0.60;;;15.40;68.80;17.30;96617.00;;;;5099722;28;20297;-71
2023/04/26 11:06:14;;;;;;;1.47;0.70;;;15.30;70.50;16.70;96614.00;;;;5101529;28;20270;-70
2023/04/26 11:09:04;;;;;;;0.60;0.60;;;15.20;68.70;16.60;96605.00;;;;5101644;28;20578;-72
2023/04/26 11:11:53;;;;;;;0.60;0.57;;;15.00;69.30;16.60;96613.00;;;;5098767;28;20218;-72
2023/04/26 11:14:42;;;;;;;0.50;0.50;;;14.80;69.90;17.10;96541.00;;;;5102270;28;20253;-72
2023/04/26 11:17:38;;;;;;;0.73;0.60;;;15.00;68.70;18.60;96553.00;;;;5104121;28;20198;-71
2023/04/26 11:20:31;;;;;;;0.67;0.67;;;15.40;71.50;19.10;96562.00;;;;5097622;28;20207;-72
2023/04/26 11:23:20;;;;;;;1.07;0.70;;;16.10;70.30;19.30;96557.00;;;;5107837;28;20223;-70
2023/04/26 11:26:09;;;;;;;0.50;0.50;;;16.50;69.40;19.00;96547.00;;;;5101133;28;20723;-69
2023/04/26 11:28:58;;;;;;;0.70;0.63;;;16.80;66.30;19.90;96536.00;;;;5105134;28;20743;-76
2023/04/26 11:31:53;;;;;;;1.47;0.60;;;17.30;67.30;20.30;96538.00;;;;5097962;28;20230;-75
2023/04/26 11:34:43;;;;;;;1.77;0.50;;;17.70;64.40;21.10;96549.00;;;;5099396;28;20206;-70
2023/04/26 11:37:32;;;;;;;1.10;0.60;;;18.00;66.00;19.50;96529.00;;;;5097287;28;20286;-71
2023/04/26 11:40:21;;;;;;;0.97;0.63;;;17.90;60.00;19.10;96517.00;;;;5097491;28;20239;-75
2023/04/26 11:43:12;;;;;;;2.73;0.40;;;17.80;59.00;15.00;96480.00;;;;5097406;28;20632;-65
2023/04/26 11:46:01;;;;;;;1.03;0.63;;;16.90;55.80;18.90;96528.00;;;;5096717;28;20203;-67
2023/04/26 11:48:51;;;;;;;0.40;0.40;;;16.80;59.90;19.00;96530.00;;;;5099793;28;20207;-68
2023/04/26 11:51:42;;;;;;;6.43;0.63;;;17.10;60.50;19.20;96519.00;;;;5103377;28;20191;-64
2023/04/26 11:54:32;;;;;;;0.30;0.30;;;17.40;57.90;17.70;96510.00;;;;5102020;28;20399;-76
2023/04/26 11:57:21;;;;;;;0.63;0.40;;;17.40;58.70;19.70;96499.00;;;;5108196;28;20252;-66
2023/04/26 12:00:13;;;;;;;0.63;0.50;;;17.70;59.10;20.10;96495.00;;;;5102641;28;20724;-65
2023/04/26 12:03:09;;;;;;;0.60;0.50;;;18.20;56.40;21.00;96524.00;;;;5109268;28;20217;-67
2023/04/26 12:05:58;;;;;;;3.80;0.70;;;18.60;56.30;21.10;96501.00;;;;5104479;28;20209;-66
2023/04/26 12:08:52;;;;;;;0.70;0.50;;;18.90;55.80;21.60;96525.00;;;;5090582;28;20199;-66
2023/04/26 12:11:41;;;;;;;1.63;0.70;;;19.10;55.90;21.50;96508.00;;;;5103313;28;20225;-72
2023/04/26 12:14:33;;;;;;;0.77;0.50;;;19.30;56.00;20.80;96508.00;;;;5106632;28;20205;-67
2023/04/26 12:17:21;;;;;;;0.50;0.50;;;19.40;54.40;22.40;96518.00;;;;5095232;28;20654;-70
2023/04/26 12:20:11;;;;;;;1.70;1.00;;;19.60;57.10;21.10;96515.00;;;;5104795;28;20215;-67
2023/04/26 12:23:03;;;;;;;1.03;0.60;;;19.70;53.20;21.50;96522.00;;;;5093331;28;20218;-65
2023/04/26 12:26:00;;;;;;;1.03;0.63;;;19.50;53.30;21.60;96496.00;;;;5104223;28;20199;-63
2023/04/26 12:28:49;;;;;;;1.17;1.07;;;19.60;52.10;21.60;96495.00;;;;5103328;28;20203;-66
2023/04/26 12:31:38;;;;;;;1.20;0.60;;;19.50;52.00;20.90;96494.00;;;;5107514;28;20244;-66
2023/04/26 12:34:27;;;;;;;0.70;0.50;;;19.60;51.30;21.20;96492.00;;;;5107226;28;20260;-71
2023/04/26 12:37:16;;;;;;;0.33;0.33;;;19.40;52.50;21.90;96491.00;;;;5103926;28;20195;-74
2023/04/26 12:40:08;;;;;;;0.80;0.63;;;19.40;53.90;23.40;96493.00;;;;5104187;28;20226;-70
2023/04/26 12:42:58;;;;;;;2.73;0.60;;;19.90;54.70;23.10;96484.00;;;;5098191;28;20742;-67
2023/04/26 12:45:47;;;;;;;0.80;0.80;;;20.30;52.90;22.80;96493.00;;;;5098632;28;20195;-68